VMMC/MFM METAR and TAF weather

Enter ICAO airport designator
Station Type Date Time Source
VMMC METAR 2019/02/21 12:00 UTC NOAA

VMMC 211200Z 12011KT 6000 FEW005 SCT010 22/21 Q1016 TEMPO 4000 -RA BR


Station Type Date Time Source
VMMC Decoded METAR 2019/02/21 12:00 UTC NOAA

Taipa, Macau (VMMC) 22-10N 113-34E
Feb 21, 2019 - 07:00 AM EST / 2019.02.21 1200 UTC
Wind: from the ESE (120 degrees) at 13 MPH (11 KT):0
Visibility: 3 mile(s):0
Sky conditions: partly cloudy
Temperature: 71 F (22 C)
Dew Point: 69 F (21 C)
Relative Humidity: 94%
Pressure (altimeter): 30.00 in. Hg (1016 hPa)
ob: VMMC 211200Z 12011KT 6000 FEW005 SCT010 22/21 Q1016 TEMPO 4000 -RA BR
cycle: 12

Station Type Date Time Source
VMMC TAF 2019/02/21 12:21 UTC NOAA

TAF VMMC 211100Z 2112/2218 36012KT 7000 FEW010 SCT025
TEMPO 2112/2115 12008KT
TEMPO 2112/2118 4000 RA BR


Example: see airport list